Terminal Aerodrome Forecast
Issued by NWS Corpus Christi, TX

Current Version | Previous Version | Text Only | Print | Product List | Glossary Off
Versions: 1 2 3 4 5 6 7 8 9 10 11 12 13 14 15 16

000
FTUS44 KCRP 231125
TAFVCT
TAF
KVCT 231125Z 2312/2412 12005KT P6SM SCT015 OVC040
     FM231500 15011KT P6SM VCTS SCT025CB BKN035
     FM232000 14014G20KT P6SM VCTS SCT045CB OVC100
      TEMPO 2320/2324 VRB20G35KT 2SM +TSRA BR OVC015CB
     FM240200 12012KT P6SM VCTS SCT020CB=

USA.gov is the U.S. government's official web portal to all federal, state and local government web resources and services.